Change the Weather History Date:

Sunday, November 6, 2011

  Actual Average Record
Temperature  
Mean Temperature 56 °F -  
Max Temperature 69 °F 70 °F 86 °F (1938)
Min Temperature 42 °F 42 °F 21 °F (1976)
Degree Days  
Heating Degree Days 10    
Growing Degree Days 6 (Base 50)    
Moisture  
Dew Point 44 °F    
Average Humidity 69    
Maximum Humidity 87    
Minimum Humidity 49    
Precipitation  
Precipitation 0.00 in - - ()
Sea Level Pressure  
Sea Level Pressure 30.35 in    
Wind  
Wind Speed 6 mph (NE)    
Max Wind Speed 12 mph    
Max Gust Speed 16 mph    
Visibility 10 miles    
Events      
Averages and records for this station are not official NWS values.
T = Trace of Precipitation, MM = Missing Value Source: NWS Daily Summary

Daily Weather History Graph

Daily Weather History Graph

Search for Another Location

Airport or City:

Trip Planner

Search our weather history database for the weather conditions in past years. The results will help you decide how hot, cold, wet, or windy it might be!

Date:

Astronomy

Nov. 06, 2011 Rise Set
Actual Time 6:53 AM EST 5:37 PM EST
Civil Twilight 6:27 AM EST 6:02 PM EST
Nautical Twilight 5:58 AM EST 6:32 PM EST
Astronomical Twilight 5:29 AM EST 7:01 PM EST
Moon 3:11 PM EST (11/6) 3:09 AM EST (11/6)
Length of Visible Light 11h 35m
Length of Day
10h 43m
Waxing Gibbous, 85% of the Moon is Illuminated
Nov 6
Waxing Gibbous
Nov 10
Full
Nov 18
Last Quarter
Nov 25
New
Dec 2
First Quarter

Hourly Weather History & Observations

Time (EST) Temp. Windchill Dew Point Humidity Pressure Visibility Wind Dir Wind Speed Gust Speed Precip Events Conditions
12:15 AM 44.6 °F 41.4 °F 39.2 °F 81% 30.33 in 10.0 mi NE 5.8 mph - N/A   Clear
12:35 AM 44.6 °F 40.2 °F 39.2 °F 81% 30.33 in 10.0 mi ENE 8.1 mph - N/A   Clear
12:55 AM 44.6 °F 40.7 °F 39.2 °F 81% 30.33 in 10.0 mi ENE 6.9 mph - N/A   Clear
1:15 AM 44.6 °F 41.4 °F 39.2 °F 81% 30.33 in 10.0 mi ENE 5.8 mph - N/A   Clear
1:35 AM 44.6 °F 40.7 °F 39.2 °F 81% 30.33 in 10.0 mi NE 6.9 mph - N/A   Clear
1:55 AM 44.6 °F 41.4 °F 39.2 °F 81% 30.33 in 10.0 mi NE 5.8 mph - N/A   Clear
1:15 AM 44.6 °F 41.4 °F 39.2 °F 81% 30.32 in 10.0 mi NE 5.8 mph - N/A   Clear
1:35 AM 44.6 °F 41.4 °F 39.2 °F 81% 30.32 in 10.0 mi NE 5.8 mph - N/A   Clear
1:55 AM 44.6 °F 42.2 °F 39.2 °F 81% 30.32 in 10.0 mi NE 4.6 mph - N/A   Clear
2:15 AM 42.8 °F 40.1 °F 39.2 °F 87% 30.32 in 10.0 mi NE 4.6 mph - N/A   Clear
2:35 AM 44.6 °F 42.2 °F 39.2 °F 81% 30.32 in 10.0 mi NNE 4.6 mph - N/A   Clear
2:55 AM 44.6 °F 41.4 °F 37.4 °F 76% 30.32 in 10.0 mi NE 5.8 mph - N/A   Clear
3:15 AM 44.6 °F 41.4 °F 37.4 °F 76% 30.32 in 10.0 mi NE 5.8 mph - N/A   Clear
3:35 AM 44.6 °F 41.4 °F 37.4 °F 76% 30.33 in 10.0 mi NE 5.8 mph - N/A   Clear
3:55 AM 44.6 °F 41.4 °F 37.4 °F 76% 30.33 in 10.0 mi NE 5.8 mph - N/A   Clear
4:15 AM 44.6 °F 41.4 °F 37.4 °F 76% 30.34 in 10.0 mi NE 5.8 mph - N/A   Clear
4:35 AM 44.6 °F 40.7 °F 39.2 °F 81% 30.34 in 10.0 mi NE 6.9 mph - N/A   Clear
4:55 AM 44.6 °F 40.2 °F 39.2 °F 81% 30.34 in 10.0 mi NE 8.1 mph - N/A   Clear
5:15 AM 44.6 °F 40.2 °F 39.2 °F 81% 30.34 in 10.0 mi ENE 8.1 mph - N/A   Clear
5:35 AM 44.6 °F 40.7 °F 39.2 °F 81% 30.35 in 10.0 mi ENE 6.9 mph - N/A   Clear
5:55 AM 44.6 °F 40.7 °F 39.2 °F 81% 30.35 in 10.0 mi NE 6.9 mph - N/A   Mostly Cloudy
6:15 AM 46.4 °F 43.5 °F 39.2 °F 76% 30.36 in 10.0 mi NE 5.8 mph - N/A   Overcast
6:35 AM 44.6 °F 41.4 °F 39.2 °F 81% 30.36 in 10.0 mi ENE 5.8 mph - N/A   Scattered Clouds
7:15 AM 44.6 °F 42.2 °F 39.2 °F 81% 30.38 in 10.0 mi ENE 4.6 mph - N/A   Scattered Clouds
7:35 AM 46.4 °F 43.5 °F 41.0 °F 81% 30.39 in 10.0 mi NE 5.8 mph - N/A   Scattered Clouds
7:55 AM 46.4 °F 42.9 °F 41.0 °F 81% 30.39 in 10.0 mi NE 6.9 mph - N/A   Clear
8:15 AM 48.2 °F - 41.0 °F 76% 30.41 in 10.0 mi ENE 5.8 mph - N/A   Scattered Clouds
8:35 AM 48.2 °F - 41.0 °F 76% 30.40 in 10.0 mi NE 6.9 mph - N/A   Mostly Cloudy
8:55 AM 50.0 °F - 42.8 °F 76% 30.40 in 10.0 mi NE 8.1 mph - N/A   Scattered Clouds
9:15 AM 53.6 °F - 42.8 °F 67% 30.40 in 10.0 mi NE 9.2 mph - N/A   Clear
9:35 AM 55.4 °F - 42.8 °F 63% 30.41 in 10.0 mi ENE 11.5 mph - N/A   Clear
9:55 AM 55.4 °F - 42.8 °F 63% 30.41 in 10.0 mi ENE 11.5 mph 16.1 mph N/A   Clear
10:15 AM 57.2 °F - 44.6 °F 63% 30.41 in 10.0 mi NE 11.5 mph - N/A   Scattered Clouds
10:35 AM 57.2 °F - 44.6 °F 63% 30.42 in 10.0 mi NE 9.2 mph - N/A   Mostly Cloudy
10:55 AM 59.0 °F - 44.6 °F 59% 30.42 in 10.0 mi ENE 6.9 mph - N/A   Overcast
11:15 AM 60.8 °F - 46.4 °F 59% 30.42 in 10.0 mi ENE 9.2 mph - N/A   Overcast
11:35 AM 60.8 °F - 46.4 °F 59% 30.42 in 10.0 mi ENE 6.9 mph - N/A   Overcast
11:55 AM 60.8 °F - 46.4 °F 59% 30.40 in 10.0 mi ENE 9.2 mph - N/A   Overcast
12:15 PM 62.6 °F - 46.4 °F 55% 30.40 in 10.0 mi ENE 8.1 mph - N/A   Overcast
12:35 PM 64.4 °F - 46.4 °F 52% 30.38 in 10.0 mi ENE 5.8 mph - N/A   Overcast
12:55 PM 62.6 °F - 46.4 °F 55% 30.37 in 10.0 mi NE 5.8 mph - N/A   Overcast
1:15 PM 64.4 °F - 46.4 °F 52% 30.36 in 10.0 mi East 6.9 mph - N/A   Overcast
1:35 PM 64.4 °F - 48.2 °F 56% 30.35 in 10.0 mi East 9.2 mph - N/A   Overcast
1:55 PM 66.2 °F - 48.2 °F 52% 30.34 in 10.0 mi ENE 9.2 mph - N/A   Overcast
2:15 PM 68.0 °F - 50.0 °F 52% 30.34 in 10.0 mi East 6.9 mph - N/A   Overcast
2:35 PM 68.0 °F - 50.0 °F 52% 30.34 in 10.0 mi ENE 8.1 mph - N/A   Overcast
2:55 PM 68.0 °F - 50.0 °F 52% 30.33 in 10.0 mi ENE 4.6 mph - N/A   Overcast
3:15 PM 69.8 °F - 50.0 °F 49% 30.32 in 10.0 mi ENE 5.8 mph - N/A   Scattered Clouds
3:35 PM 69.8 °F - 50.0 °F 49% 30.32 in 10.0 mi NE 8.1 mph - N/A   Scattered Clouds
3:55 PM 69.8 °F - 50.0 °F 49% 30.32 in 10.0 mi ENE 6.9 mph - N/A   Clear
4:15 PM 68.0 °F - 51.8 °F 56% 30.31 in 10.0 mi ENE 4.6 mph - N/A   Clear
4:35 PM 68.0 °F - 51.8 °F 56% 30.32 in 10.0 mi East 3.5 mph - N/A   Clear
4:55 PM 68.0 °F - 51.8 °F 56% 30.32 in 10.0 mi ENE 4.6 mph - N/A   Clear
5:15 PM 66.2 °F - 51.8 °F 60% 30.32 in 10.0 mi East 5.8 mph - N/A   Scattered Clouds
5:35 PM 62.6 °F - 51.8 °F 68% 30.32 in 10.0 mi NE 3.5 mph - N/A   Scattered Clouds
5:55 PM 60.8 °F - 51.8 °F 72% 30.32 in 10.0 mi Calm Calm - N/A   Clear
6:15 PM 59.0 °F - 51.8 °F 77% 30.33 in 10.0 mi NE 3.5 mph - N/A   Clear
6:35 PM 60.8 °F - 51.8 °F 72% 30.34 in 10.0 mi NE 3.5 mph - N/A   Clear
6:55 PM 57.2 °F - 51.8 °F 82% 30.34 in 10.0 mi NE 3.5 mph - N/A   Clear
7:15 PM 55.4 °F - 51.8 °F 88% 30.35 in 10.0 mi NE 3.5 mph - N/A   Clear
7:35 PM 57.2 °F - 51.8 °F 82% 30.35 in 10.0 mi NE 3.5 mph - N/A   Clear
7:55 PM 55.4 °F - 51.8 °F 88% 30.35 in 10.0 mi NE 3.5 mph - N/A   Clear
8:15 PM 55.4 °F - 51.8 °F 88% 30.35 in 10.0 mi Calm Calm - N/A   Clear
8:35 PM 53.6 °F - 50.0 °F 88% 30.36 in 10.0 mi Calm Calm - N/A   Clear
8:55 PM 55.4 °F - 51.8 °F 88% 30.36 in 10.0 mi NNE 3.5 mph - N/A   Clear
9:15 PM 55.4 °F - 51.8 °F 88% 30.36 in 10.0 mi NE 3.5 mph - N/A   Clear
9:35 PM 53.6 °F - 50.0 °F 88% 30.36 in 10.0 mi ENE 4.6 mph - N/A   Clear
9:55 PM 53.6 °F - 50.0 °F 88% 30.37 in 10.0 mi ENE 3.5 mph - N/A   Clear
10:15 PM 53.6 °F - 50.0 °F 88% 30.37 in 10.0 mi ENE 3.5 mph - N/A   Clear
10:35 PM 53.6 °F - 50.0 °F 88% 30.37 in 10.0 mi ENE 3.5 mph - N/A   Clear
10:55 PM 53.6 °F - 50.0 °F 88% 30.37 in 10.0 mi ENE 3.5 mph - N/A   Clear